createdAt,value
2018-07-28T00:00:46.029Z,19.6
2018-07-28T00:04:46.279Z,19.8
2018-07-28T00:06:46.383Z,19.9
2018-07-28T00:08:46.548Z,20
2018-07-28T00:10:46.686Z,20.1
2018-07-28T00:15:46.969Z,20.3
2018-07-28T00:22:47.396Z,20.1
2018-07-28T00:27:47.820Z,20
2018-07-28T00:29:47.798Z,19.9
2018-07-28T00:34:48.104Z,19.8
2018-07-28T00:36:48.233Z,19.6
2018-07-28T00:41:48.607Z,19.5
2018-07-28T00:42:48.681Z,19.6
2018-07-28T00:56:49.586Z,19.5
2018-07-28T01:03:50.022Z,19.4
2018-07-28T01:06:50.147Z,19.3
2018-07-28T01:09:50.365Z,19.1
2018-07-28T01:12:50.506Z,19
2018-07-28T01:14:50.617Z,18.9
2018-07-28T01:15:50.697Z,19
2018-07-28T01:16:50.792Z,18.9
2018-07-28T01:19:50.956Z,18.8
2018-07-28T01:24:51.280Z,18.6
2018-07-28T01:29:51.574Z,18.5
2018-07-28T01:40:52.276Z,18.3
2018-07-28T01:42:52.389Z,18.1
2018-07-28T01:45:52.523Z,18
2018-07-28T01:49:52.796Z,17.9
2018-07-28T01:53:54.551Z,17.8
2018-07-28T02:00:53.491Z,17.6
2018-07-28T02:12:54.237Z,17.8
2018-07-28T02:19:54.654Z,17.9
2018-07-28T02:20:54.667Z,17.8
2018-07-28T02:21:54.724Z,17.9
2018-07-28T02:35:55.586Z,17.8
2018-07-28T02:40:56.052Z,17.6
2018-07-28T02:47:56.742Z,17.5
2018-07-28T03:16:01.710Z,17.6
2018-07-28T03:17:01.923Z,17.5
2018-07-28T03:24:03.146Z,17.4
2018-07-28T03:38:05.700Z,17.5
2018-07-28T03:45:06.892Z,17.6
2018-07-28T03:56:08.873Z,17.8
2018-07-28T04:04:10.351Z,17.9
2018-07-28T04:07:10.837Z,18
2018-07-28T04:10:11.396Z,18.1
2018-07-28T04:14:12.072Z,18.3
2018-07-28T04:17:12.634Z,18.4
2018-07-28T04:20:13.242Z,18.5
2018-07-28T04:21:13.409Z,18.6
2018-07-28T04:24:13.994Z,18.8
2018-07-28T04:26:14.293Z,18.9
2018-07-28T04:28:14.660Z,19
2018-07-28T04:30:15.017Z,19.1
2018-07-28T04:32:15.390Z,19.3
2018-07-28T04:34:15.789Z,19.4
2018-07-28T04:35:15.935Z,19.5
2018-07-28T04:37:16.295Z,19.6
2018-07-28T04:38:16.488Z,19.8
2018-07-28T04:39:16.706Z,19.9
2018-07-28T04:41:17.072Z,20
2018-07-28T04:42:17.237Z,20.1
2018-07-28T04:43:17.406Z,20.3
2018-07-28T04:44:17.609Z,20.4
2018-07-28T04:45:17.784Z,20.5
2018-07-28T04:46:17.965Z,20.6
2018-07-28T04:47:18.082Z,20.8
2018-07-28T04:48:18.283Z,20.9
2018-07-28T04:49:18.503Z,21
2018-07-28T04:50:18.622Z,21.1
2018-07-28T04:51:18.801Z,21.2
2018-07-28T04:52:19.008Z,21.4
2018-07-28T04:53:19.224Z,21.5
2018-07-28T04:54:19.386Z,21.6
2018-07-28T04:55:19.765Z,21.9
2018-07-28T04:56:19.962Z,22
2018-07-28T04:57:20.124Z,22.1
2018-07-28T04:58:20.315Z,22.2
2018-07-28T04:59:20.468Z,22.5
2018-07-28T05:00:20.627Z,22.6
2018-07-28T05:01:20.821Z,23
2018-07-28T05:02:21.041Z,23.4
2018-07-28T05:03:21.221Z,23.5
2018-07-28T05:04:21.385Z,23.6
2018-07-28T05:05:21.590Z,23.7
2018-07-28T05:07:21.948Z,23.9
2018-07-28T05:08:22.070Z,24
2018-07-28T05:09:22.328Z,24.1
2018-07-28T05:10:22.428Z,24.5
2018-07-28T05:11:22.691Z,24.7
2018-07-28T05:12:22.859Z,24.9
2018-07-28T05:13:23.006Z,24.7
2018-07-28T05:16:23.557Z,24.9
2018-07-28T05:17:23.690Z,25
2018-07-28T05:18:23.873Z,25.1
2018-07-28T05:19:24.043Z,25.3
2018-07-28T05:21:24.435Z,25.5
2018-07-28T05:23:24.742Z,25.6
2018-07-28T05:25:25.118Z,25.8
2018-07-28T05:26:25.342Z,25.9
2018-07-28T05:29:25.843Z,26
2018-07-28T05:30:26.024Z,26.1
2018-07-28T05:31:26.198Z,26.2
2018-07-28T05:32:26.392Z,26.4
2018-07-28T05:34:26.699Z,26.5
2018-07-28T05:35:26.879Z,26.6
2018-07-28T05:39:27.653Z,26.9
2018-07-28T05:40:27.820Z,27.1
2018-07-28T05:41:27.994Z,27.4
2018-07-28T05:43:28.409Z,27.2
2018-07-28T05:45:28.710Z,27.1
2018-07-28T05:46:28.925Z,27
2018-07-28T05:50:29.614Z,27.1
2018-07-28T05:51:29.786Z,27
2018-07-28T05:52:29.972Z,27.1
2018-07-28T06:11:33.422Z,27
2018-07-28T06:12:33.592Z,26.9
2018-07-28T06:13:33.771Z,26.8
2018-07-28T06:14:33.980Z,26.6
2018-07-28T06:15:34.163Z,26.5
2018-07-28T06:16:34.372Z,26.4
2018-07-28T06:17:34.578Z,26.2
2018-07-28T06:18:34.691Z,26.1
2018-07-28T06:19:34.945Z,26
2018-07-28T06:23:35.592Z,26.1
2018-07-28T06:25:35.979Z,26.2
2018-07-28T06:27:36.369Z,26.4
2018-07-28T06:32:37.284Z,26.5
2018-07-28T06:33:37.592Z,26.4
2018-07-28T06:41:38.908Z,26.5
2018-07-28T06:42:39.093Z,26.6
2018-07-28T06:43:39.262Z,26.8
2018-07-28T06:44:39.442Z,26.9
2018-07-28T06:46:39.785Z,27.1
2018-07-28T06:49:40.375Z,27.2
2018-07-28T06:50:41.575Z,27.4
2018-07-28T06:51:41.568Z,27.6
2018-07-28T06:52:43.874Z,28
2018-07-28T06:53:41.955Z,28.1
2018-07-28T06:54:41.933Z,28.3
2018-07-28T06:55:42.249Z,28.1
2018-07-28T06:57:42.109Z,28
2018-07-28T06:59:42.227Z,28.1
2018-07-28T07:00:42.469Z,28.3
2018-07-28T07:01:42.395Z,28.4
2018-07-28T07:04:42.579Z,28.5
2018-07-28T07:05:42.733Z,28.6
2018-07-28T07:08:42.790Z,28.7
2018-07-28T07:09:42.853Z,28.9
2018-07-28T07:10:43.029Z,28.7
2018-07-28T07:12:43.133Z,28.9
2018-07-28T07:14:43.234Z,29
2018-07-28T07:20:43.714Z,29.1
2018-07-28T07:21:43.655Z,29.3
2018-07-28T07:23:43.762Z,29.1
2018-07-28T07:24:43.889Z,29.3
2018-07-28T07:25:44.129Z,29.4
2018-07-28T07:26:43.971Z,29.5
2018-07-28T07:27:44.029Z,29.6
2018-07-28T07:34:44.436Z,29.8
2018-07-28T07:39:44.736Z,29.9
2018-07-28T07:41:44.916Z,30
2018-07-28T07:42:44.951Z,30.3
2018-07-28T07:44:45.045Z,30.4
2018-07-28T07:46:45.142Z,30.5
2018-07-28T07:47:45.245Z,30.6
2018-07-28T07:48:45.272Z,30.8
2018-07-28T07:49:45.390Z,30.6
2018-07-28T07:50:45.424Z,30.5
2018-07-28T07:51:45.515Z,30.4
2018-07-28T07:52:45.579Z,30.3
2018-07-28T07:56:45.778Z,30.6
2018-07-28T07:57:45.845Z,30.9
2018-07-28T07:58:45.927Z,31.1
2018-07-28T07:59:45.964Z,31.8
2018-07-28T08:00:46.090Z,32.4
2018-07-28T08:01:46.119Z,32.5
2018-07-28T08:02:46.134Z,33
2018-07-28T08:03:46.255Z,33.6
2018-07-28T08:04:46.304Z,34.1
2018-07-28T08:05:46.336Z,34.6
2018-07-28T08:06:46.419Z,35.2
2018-07-28T08:07:46.506Z,35.5
2018-07-28T08:08:46.538Z,35.7
2018-07-28T08:09:46.591Z,36.5
2018-07-28T08:10:46.685Z,37.1
2018-07-28T08:11:46.736Z,36.6
2018-07-28T08:12:47.163Z,36.2
2018-07-28T08:15:47.177Z,36
2018-07-28T08:16:47.345Z,35.5
2018-07-28T08:17:47.350Z,34.9
2018-07-28T08:18:47.389Z,34.5
2018-07-28T08:19:47.450Z,34.2
2018-07-28T08:20:47.500Z,34
2018-07-28T08:21:47.588Z,33.7
2018-07-28T08:23:47.673Z,33.9
2018-07-28T08:24:47.744Z,34.1
2018-07-28T08:26:47.890Z,34.2
2018-07-28T08:27:47.914Z,34.5
2018-07-28T08:28:47.978Z,34.9
2018-07-28T08:29:48.044Z,35.1
2018-07-28T08:30:48.100Z,35.7
2018-07-28T08:31:48.165Z,35.9
2018-07-28T08:32:48.236Z,36.1
2018-07-28T08:33:48.360Z,36.2
2018-07-28T08:34:48.419Z,36.5
2018-07-28T08:35:48.434Z,36.9
2018-07-28T08:36:48.494Z,37.4
2018-07-28T08:37:48.613Z,37.9
2018-07-28T08:38:48.629Z,38.4
2018-07-28T08:39:48.767Z,38.5
2018-07-28T08:40:48.734Z,39
2018-07-28T08:41:48.821Z,39.7
2018-07-28T08:42:48.866Z,40.6
2018-07-28T08:43:48.937Z,41.4
2018-07-28T08:44:48.977Z,42
2018-07-28T08:45:49.071Z,42.6
2018-07-28T08:46:49.098Z,42.9
2018-07-28T08:47:49.155Z,43.3
2018-07-28T08:48:49.335Z,43.6
2018-07-28T08:49:49.311Z,44
2018-07-28T08:50:49.385Z,43.7
2018-07-28T08:51:49.456Z,43.1
2018-07-28T08:53:49.574Z,42.9
2018-07-28T08:54:49.629Z,43
2018-07-28T08:55:49.931Z,43.1
2018-07-28T08:56:49.758Z,43.3
2018-07-28T08:57:49.794Z,43.7
2018-07-28T08:58:49.878Z,44.1
2018-07-28T08:59:49.896Z,44.4
2018-07-28T09:00:49.999Z,44.7
2018-07-28T09:01:50.022Z,45.1
2018-07-28T09:02:50.223Z,45.5
2018-07-28T09:03:50.202Z,46
2018-07-28T09:04:50.244Z,46.5
2018-07-28T09:05:50.345Z,46.9
2018-07-28T09:06:50.368Z,47.4
2018-07-28T09:07:52.157Z,47.7
2018-07-28T09:08:50.492Z,48
2018-07-28T09:09:50.517Z,48.4
2018-07-28T09:10:50.622Z,48.6
2018-07-28T09:11:50.652Z,48.7
2018-07-28T09:12:50.705Z,49
2018-07-28T09:13:50.755Z,49.1
2018-07-28T09:14:50.817Z,49.4
2018-07-28T09:15:50.882Z,49.5
2018-07-28T09:16:50.953Z,49.6
2018-07-28T09:17:51.030Z,49.9
2018-07-28T09:18:51.065Z,50
2018-07-28T09:19:51.145Z,50.2
2018-07-28T09:20:51.359Z,50.4
2018-07-28T09:21:51.514Z,50.6
2018-07-28T09:22:51.353Z,50.8
2018-07-28T09:23:51.419Z,50.9
2018-07-28T09:24:51.505Z,51
2018-07-28T09:25:51.570Z,51.2
2018-07-28T09:27:51.668Z,51.4
2018-07-28T09:28:51.700Z,51.5
2018-07-28T09:29:51.755Z,51.6
2018-07-28T09:30:51.814Z,51.7
2018-07-28T09:31:51.889Z,51.9
2018-07-28T09:32:51.939Z,52
2018-07-28T09:33:52.005Z,52.4
2018-07-28T09:34:52.064Z,52.6
2018-07-28T09:35:52.145Z,53
2018-07-28T09:36:52.235Z,53.6
2018-07-28T09:37:52.296Z,54.1
2018-07-28T09:38:52.302Z,54.7
2018-07-28T09:39:52.385Z,54.9
2018-07-28T09:40:52.432Z,54.5
2018-07-28T09:41:52.520Z,53.7
2018-07-28T09:42:52.637Z,52.5
2018-07-28T09:43:52.658Z,51.1
2018-07-28T09:44:52.710Z,50
2018-07-28T09:45:52.731Z,49.1
2018-07-28T09:46:52.903Z,48.4
2018-07-28T09:47:52.935Z,48
2018-07-28T09:48:52.984Z,47.4
2018-07-28T09:49:53.039Z,46.7
2018-07-28T09:50:53.124Z,46.2
2018-07-28T09:51:53.184Z,47.9
2018-07-28T09:52:53.243Z,47.4
2018-07-28T09:53:53.291Z,46.9
2018-07-28T09:54:53.331Z,47.9
2018-07-28T09:55:53.403Z,49.6
2018-07-28T09:56:53.467Z,49.7
2018-07-28T09:57:53.540Z,50.4
2018-07-28T09:58:53.548Z,51.1
2018-07-28T09:59:53.615Z,52.1
2018-07-28T10:00:53.680Z,51
2018-07-28T10:01:53.719Z,50
2018-07-28T10:02:53.776Z,49.1
2018-07-28T10:03:53.875Z,48.6
2018-07-28T10:04:53.904Z,48.4
2018-07-28T10:05:54.023Z,48
2018-07-28T10:06:54.035Z,47.7
2018-07-28T10:07:54.112Z,48
2018-07-28T10:08:54.168Z,48.7
2018-07-28T10:09:54.299Z,49.1
2018-07-28T10:10:54.279Z,49
2018-07-28T10:11:54.354Z,49.4
2018-07-28T10:12:54.443Z,50.4
2018-07-28T10:13:54.499Z,50.5
2018-07-28T10:14:54.574Z,52.1
2018-07-28T10:15:54.652Z,53.6
2018-07-28T10:16:54.688Z,54.1
2018-07-28T10:17:54.716Z,54.7
2018-07-28T10:18:54.777Z,55.4
2018-07-28T10:19:54.837Z,56.2
2018-07-28T10:20:54.936Z,55
2018-07-28T10:21:54.957Z,54.7
2018-07-28T10:22:55.039Z,54.2
2018-07-28T10:23:55.097Z,53.7
2018-07-28T10:24:55.171Z,52.5
2018-07-28T10:25:55.233Z,51.5
2018-07-28T10:26:55.261Z,50.6
2018-07-28T10:27:55.330Z,49.9
2018-07-28T10:28:55.443Z,49.1
2018-07-28T10:29:55.524Z,48.5
2018-07-28T10:30:55.544Z,47.9
2018-07-28T10:31:55.620Z,47.2
2018-07-28T10:32:55.696Z,46.6
2018-07-28T10:33:55.765Z,46.1
2018-07-28T10:34:55.821Z,45.8
2018-07-28T10:35:55.838Z,46.2
2018-07-28T10:36:55.949Z,47.1
2018-07-28T10:37:55.999Z,46.7
2018-07-28T10:38:56.087Z,47.4
2018-07-28T10:39:56.070Z,48.9
2018-07-28T10:40:56.194Z,50.1
2018-07-28T10:41:56.262Z,51
2018-07-28T10:42:56.322Z,52.1
2018-07-28T10:43:56.379Z,52.5
2018-07-28T10:44:56.414Z,51.5
2018-07-28T10:45:56.509Z,50.4
2018-07-28T10:46:56.578Z,48.9
2018-07-28T10:47:56.627Z,47.6
2018-07-28T10:48:56.639Z,46.5
2018-07-28T10:49:56.728Z,45.4
2018-07-28T10:50:56.749Z,44.4
2018-07-28T10:51:57.482Z,43.6
2018-07-28T10:52:56.888Z,42.7
2018-07-28T10:53:56.941Z,42.1
2018-07-28T10:54:56.998Z,41.5
2018-07-28T10:55:57.070Z,40.9
2018-07-28T10:56:57.139Z,40.4
2018-07-28T10:57:57.196Z,39.9
2018-07-28T10:58:57.293Z,39.4
2018-07-28T10:59:57.393Z,39
2018-07-28T11:00:57.553Z,38.6
2018-07-28T11:01:57.495Z,38.4
2018-07-28T11:02:57.550Z,38.1
2018-07-28T11:03:57.561Z,38
2018-07-28T11:04:57.653Z,37.7
2018-07-28T11:05:57.717Z,37.6
2018-07-28T11:06:57.742Z,37.5
2018-07-28T11:07:57.799Z,37.2
2018-07-28T11:08:57.874Z,37.1
2018-07-28T11:10:57.980Z,37
2018-07-28T11:14:58.281Z,37.1
2018-07-28T11:15:58.346Z,37.2
2018-07-28T11:16:58.355Z,37.5
2018-07-28T11:17:58.480Z,38.7
2018-07-28T11:18:58.588Z,41.4
2018-07-28T11:19:58.587Z,43.5
2018-07-28T11:20:58.602Z,44.9
2018-07-28T11:21:58.754Z,45.4
2018-07-28T11:22:58.786Z,47.1
2018-07-28T11:23:58.838Z,48.4
2018-07-28T11:24:58.971Z,49.2
2018-07-28T11:25:58.944Z,50
2018-07-28T11:26:59.008Z,50.8
2018-07-28T11:27:59.077Z,51.4
2018-07-28T11:28:59.131Z,52.1
2018-07-28T11:30:01.334Z,52.6
2018-07-28T11:30:59.286Z,52.4
2018-07-28T11:31:59.302Z,51
2018-07-28T11:32:59.384Z,49.5
2018-07-28T11:33:59.470Z,48.3
2018-07-28T11:34:59.504Z,47.2
2018-07-28T11:35:59.543Z,46.5
2018-07-28T11:36:59.628Z,45.8
2018-07-28T11:38:01.222Z,45
2018-07-28T11:38:59.743Z,44.5
2018-07-28T11:39:59.785Z,44
2018-07-28T11:40:59.862Z,43.6
2018-07-28T11:41:59.909Z,43.3
2018-07-28T11:42:59.971Z,43
2018-07-28T11:44:00.058Z,42.7
2018-07-28T11:45:00.127Z,42.6
2018-07-28T11:46:00.300Z,44.4
2018-07-28T11:47:01.545Z,46.6
2018-07-28T11:48:01.031Z,48
2018-07-28T11:49:01.620Z,48.7
2018-07-28T11:50:01.464Z,49.7
2018-07-28T11:51:01.630Z,51
2018-07-28T11:52:01.444Z,50.5
2018-07-28T11:53:00.865Z,52
2018-07-28T11:54:01.498Z,52.4
2018-07-28T11:55:02.200Z,50.9
2018-07-28T11:56:00.931Z,50.4
2018-07-28T11:57:01.733Z,50.9
2018-07-28T11:58:01.009Z,52.1
2018-07-28T11:59:01.686Z,53.3
2018-07-28T12:00:01.829Z,54.4
2018-07-28T12:01:01.079Z,55.1
2018-07-28T12:02:01.502Z,55.9
2018-07-28T12:03:01.207Z,56.4
2018-07-28T12:04:01.271Z,54.7
2018-07-28T12:05:01.545Z,52.7
2018-07-28T12:06:01.644Z,51
2018-07-28T12:07:01.694Z,49.5
2018-07-28T12:08:01.508Z,48.1
2018-07-28T12:09:01.575Z,46.7
2018-07-28T12:10:01.655Z,45.6
2018-07-28T12:11:01.712Z,44.6
2018-07-28T12:12:02.068Z,43.7
2018-07-28T12:13:01.954Z,42.9
2018-07-28T12:14:01.892Z,42
2018-07-28T12:15:02.125Z,41.4
2018-07-28T12:16:02.008Z,40.6
2018-07-28T12:17:02.087Z,40
2018-07-28T12:18:02.128Z,39.2
2018-07-28T12:19:02.196Z,38.6
2018-07-28T12:20:02.252Z,38
2018-07-28T12:21:02.383Z,37.5
2018-07-28T12:22:02.395Z,37
2018-07-28T12:23:02.477Z,36.5
2018-07-28T12:24:02.686Z,36
2018-07-28T12:25:02.580Z,35.2
2018-07-28T12:26:02.833Z,34.2
2018-07-28T12:27:02.720Z,33.1
2018-07-28T12:28:02.797Z,32.1
2018-07-28T12:29:02.810Z,31.1
2018-07-28T12:30:02.873Z,30.3
2018-07-28T12:31:02.955Z,29.5
2018-07-28T12:32:02.998Z,28.9
2018-07-28T12:33:03.127Z,28.3
2018-07-28T12:34:03.116Z,27.8
2018-07-28T12:35:03.247Z,27.4
2018-07-28T12:36:03.288Z,27
2018-07-28T12:37:03.374Z,26.6
2018-07-28T12:38:03.440Z,26.4
2018-07-28T12:39:03.460Z,26
2018-07-28T12:40:03.509Z,25.8
2018-07-28T12:41:03.639Z,25.4
2018-07-28T12:42:03.657Z,25.1
2018-07-28T12:43:03.691Z,24.7
2018-07-28T12:44:03.742Z,24.4
2018-07-28T12:45:03.803Z,24
2018-07-28T12:46:03.862Z,23.6
2018-07-28T12:47:03.923Z,23.3
2018-07-28T12:48:03.985Z,23
2018-07-28T12:49:04.048Z,22.6
2018-07-28T12:50:04.106Z,22.4
2018-07-28T12:51:04.198Z,22.1
2018-07-28T12:52:04.233Z,21.8
2018-07-28T18:35:03.756Z,20.6
2018-07-28T18:36:03.884Z,20.5
2018-07-28T18:40:04.291Z,20.6
2018-07-28T18:41:04.398Z,20.8
2018-07-28T18:42:04.482Z,20.9
2018-07-28T18:43:05.527Z,21
2018-07-28T18:45:07.478Z,21.1
2018-07-28T18:47:07.653Z,21.2
2018-07-28T18:49:07.830Z,21.4
2018-07-28T18:52:08.073Z,21.5
2018-07-28T18:58:08.692Z,21.6
2018-07-28T19:09:09.661Z,21.5
2018-07-28T19:21:10.686Z,21.4
2018-07-28T19:33:11.741Z,21.5
2018-07-28T19:36:12.028Z,21.6
2018-07-28T19:38:12.260Z,21.8
2018-07-28T19:41:12.495Z,21.9
2018-07-28T19:42:12.590Z,22
2018-07-28T19:44:12.808Z,22.1
2018-07-28T19:46:12.946Z,22.2
2018-07-28T19:49:13.321Z,22.4
2018-07-28T19:51:13.408Z,22.5
2018-07-28T19:56:13.927Z,22.6
2018-07-28T20:01:14.452Z,22.5
2018-07-28T20:03:14.455Z,22.4
2018-07-28T20:04:14.548Z,22.1
2018-07-28T20:05:14.669Z,22
2018-07-28T20:06:14.794Z,21.8
2018-07-28T20:07:14.894Z,21.5
2018-07-28T20:08:14.950Z,21.2
2018-07-28T20:09:15.072Z,21
2018-07-28T20:10:15.155Z,20.8
2018-07-28T20:11:18.009Z,20.5
2018-07-28T20:12:18.555Z,20.1
2018-07-28T20:13:18.556Z,19.8
2018-07-28T20:14:18.530Z,19.4
2018-07-28T20:15:18.570Z,19.1
2018-07-28T20:16:18.650Z,18.8
2018-07-28T20:17:18.686Z,18.5
2018-07-28T20:18:18.713Z,18.3
2018-07-28T20:19:18.832Z,17.9
2018-07-28T20:20:18.796Z,17.8
2018-07-28T20:21:18.828Z,17.5
2018-07-28T20:22:18.893Z,17.4
2018-07-28T20:23:18.947Z,17.1
2018-07-28T20:24:18.983Z,17
2018-07-28T20:25:19.036Z,16.9
2018-07-28T20:26:19.589Z,16.8
2018-07-28T20:27:19.125Z,16.6
2018-07-28T20:28:19.182Z,16.5
2018-07-28T20:29:19.231Z,16.4
2018-07-28T20:31:20.606Z,16.3
2018-07-28T20:35:20.355Z,16.1
2018-07-28T20:39:20.595Z,16
2018-07-28T20:44:20.713Z,15.9
2018-07-28T20:46:20.824Z,16
2018-07-28T20:47:20.831Z,15.9
2018-07-28T21:09:21.828Z,16
2018-07-28T21:14:22.026Z,15.9
2018-07-28T21:15:22.060Z,16
2018-07-28T21:31:22.794Z,16.1
2018-07-28T21:35:22.956Z,16
2018-07-28T21:49:23.643Z,15.9
2018-07-28T21:50:23.819Z,16
2018-07-28T21:51:24.014Z,15.9
2018-07-28T22:15:28.514Z,15.8
2018-07-28T22:16:28.680Z,15.9
2018-07-28T22:18:29.047Z,15.8
2018-07-28T22:19:29.201Z,15.9
2018-07-28T22:20:29.428Z,15.8
2018-07-28T22:40:33.116Z,15.6
2018-07-28T22:46:34.174Z,15.5
2018-07-28T22:53:35.512Z,15.4
2018-07-28T22:58:36.415Z,15.3
2018-07-28T23:03:37.305Z,15.1
2018-07-28T23:08:38.199Z,15
2018-07-28T23:24:41.168Z,14.9
2018-07-28T23:30:42.299Z,14.7
2018-07-28T23:36:43.427Z,14.6
2018-07-28T23:45:45.138Z,14.5
2018-07-28T23:46:45.312Z,14.6
2018-07-28T23:48:45.675Z,14.5
2018-07-28T23:55:47.016Z,14.4
2018-07-28T23:56:47.234Z,14.5
2018-07-28T23:57:47.444Z,14.4
